createdAt,value
2018-09-10T00:01:01.659Z,724
2018-09-10T00:02:08.592Z,726
2018-09-10T00:03:15.808Z,726
2018-09-10T00:04:23.013Z,724
2018-09-10T00:05:30.230Z,724
2018-09-10T00:06:37.443Z,725
2018-09-10T00:07:44.379Z,726
2018-09-10T00:08:51.586Z,726
2018-09-10T00:09:58.801Z,727
2018-09-10T00:11:06.227Z,729
2018-09-10T00:12:13.441Z,728
2018-09-10T00:13:20.646Z,729
2018-09-10T00:14:27.858Z,728
2018-09-10T00:15:35.070Z,728
2018-09-10T00:16:42.281Z,728
2018-09-10T00:17:49.492Z,730
2018-09-10T00:18:56.700Z,729
2018-09-10T00:20:03.915Z,729
2018-09-10T00:21:11.129Z,730
2018-09-10T00:22:18.339Z,729
2018-09-10T00:23:25.550Z,729
2018-09-10T00:24:32.757Z,729
2018-09-10T00:25:39.967Z,730
2018-09-10T00:26:46.629Z,730
2018-09-10T00:27:53.838Z,729
2018-09-10T00:29:01.045Z,729
2018-09-10T00:30:08.253Z,731
2018-09-10T00:31:15.464Z,730
2018-09-10T00:32:22.675Z,730
2018-09-10T00:33:29.606Z,729
2018-09-10T00:34:36.816Z,729
2018-09-10T00:35:43.793Z,728
2018-09-10T00:36:51.002Z,728
2018-09-10T00:37:58.215Z,729
2018-09-10T00:39:05.434Z,729
2018-09-10T00:40:12.640Z,729
2018-09-10T00:41:19.850Z,728
2018-09-10T00:42:26.785Z,728
2018-09-10T00:43:34.000Z,727
2018-09-10T00:44:40.674Z,728
2018-09-10T00:45:47.881Z,729
2018-09-10T00:46:55.089Z,728
2018-09-10T00:48:02.305Z,729
2018-09-10T00:49:09.238Z,730
2018-09-10T00:50:16.453Z,730
2018-09-10T00:51:23.665Z,730
2018-09-10T00:52:30.600Z,731
2018-09-10T00:53:37.814Z,730
2018-09-10T00:54:45.020Z,729
2018-09-10T00:55:52.235Z,731
2018-09-10T00:56:59.447Z,730
2018-09-10T00:58:06.656Z,731
2018-09-10T00:59:13.865Z,730
2018-09-10T01:00:21.077Z,731
2018-09-10T01:01:28.280Z,731
2018-09-10T01:02:35.217Z,731
2018-09-10T01:03:42.424Z,731
2018-09-10T01:04:49.636Z,732
2018-09-10T01:05:56.851Z,733
2018-09-10T01:07:03.783Z,733
2018-09-10T01:08:10.995Z,733
2018-09-10T01:09:18.199Z,734
2018-09-10T01:10:25.409Z,734
2018-09-10T01:11:32.617Z,734
2018-09-10T01:12:39.825Z,734
2018-09-10T01:13:47.030Z,733
2018-09-10T01:14:54.242Z,734
2018-09-10T01:16:01.453Z,735
2018-09-10T01:17:08.657Z,735
2018-09-10T01:18:15.868Z,735
2018-09-10T01:19:22.807Z,735
2018-09-10T01:20:30.022Z,735
2018-09-10T01:21:37.229Z,735
2018-09-10T01:22:44.436Z,735
2018-09-10T01:23:51.657Z,734
2018-09-10T01:24:58.871Z,735
2018-09-10T01:26:06.080Z,735
2018-09-10T01:27:13.294Z,734
2018-09-10T01:28:20.501Z,735
2018-09-10T01:29:27.445Z,736
2018-09-10T01:30:34.658Z,736
2018-09-10T01:31:41.870Z,735
2018-09-10T01:32:48.803Z,737
2018-09-10T01:33:56.011Z,736
2018-09-10T01:35:03.224Z,737
2018-09-10T01:36:10.434Z,737
2018-09-10T01:37:17.642Z,736
2018-09-10T01:38:24.892Z,737
2018-09-10T01:39:32.108Z,737
2018-09-10T01:40:39.308Z,737
2018-09-10T01:41:46.523Z,738
2018-09-10T01:42:53.735Z,737
2018-09-10T01:44:00.943Z,738
2018-09-10T01:45:08.160Z,738
2018-09-10T01:46:15.373Z,738
2018-09-10T01:47:22.585Z,738
2018-09-10T01:48:29.788Z,738
2018-09-10T01:49:37.001Z,738
2018-09-10T01:50:44.212Z,738
2018-09-10T01:51:51.419Z,738
2018-09-10T01:52:58.654Z,738
2018-09-10T01:54:05.870Z,738
2018-09-10T01:55:13.080Z,738
2018-09-10T01:56:20.286Z,739
2018-09-10T01:57:27.498Z,739
2018-09-10T01:58:34.708Z,739
2018-09-10T01:59:41.918Z,739
2018-09-10T02:00:48.857Z,739
2018-09-10T02:01:56.068Z,739
2018-09-10T02:03:03.276Z,739
2018-09-10T02:04:10.489Z,739
2018-09-10T02:05:17.694Z,740
2018-09-10T02:06:24.905Z,740
2018-09-10T02:07:32.125Z,740
2018-09-10T02:08:39.340Z,741
2018-09-10T02:09:46.551Z,739
2018-09-10T02:10:53.765Z,741
2018-09-10T02:12:00.979Z,741
2018-09-10T02:13:08.187Z,741
2018-09-10T02:14:15.395Z,740
2018-09-10T02:15:22.607Z,740
2018-09-10T02:16:29.542Z,739
2018-09-10T02:17:36.761Z,740
2018-09-10T02:18:43.967Z,741
2018-09-10T02:19:51.174Z,740
2018-09-10T02:20:58.379Z,739
2018-09-10T02:22:05.595Z,737
2018-09-10T02:23:12.809Z,739
2018-09-10T02:24:20.011Z,737
2018-09-10T02:25:27.219Z,738
2018-09-10T02:26:34.151Z,737
2018-09-10T02:27:41.438Z,738
2018-09-10T02:28:48.740Z,738
2018-09-10T02:29:55.676Z,738
2018-09-10T02:31:02.885Z,738
2018-09-10T02:32:10.090Z,739
2018-09-10T02:33:17.303Z,738
2018-09-10T02:34:24.510Z,739
2018-09-10T02:35:31.719Z,739
2018-09-10T02:36:38.935Z,740
2018-09-10T02:37:46.147Z,740
2018-09-10T02:38:53.362Z,740
2018-09-10T02:40:00.571Z,741
2018-09-10T02:41:07.786Z,740
2018-09-10T02:42:14.998Z,741
2018-09-10T02:43:22.209Z,741
2018-09-10T02:44:29.425Z,740
2018-09-10T02:45:36.685Z,739
2018-09-10T02:46:43.895Z,740
2018-09-10T02:47:51.111Z,739
2018-09-10T02:48:58.319Z,740
2018-09-10T02:50:05.254Z,739
2018-09-10T02:51:12.465Z,740
2018-09-10T02:52:19.674Z,739
2018-09-10T02:53:26.929Z,740
2018-09-10T02:54:33.872Z,740
2018-09-10T02:55:41.093Z,738
2018-09-10T02:56:48.292Z,738
2018-09-10T02:57:55.503Z,739
2018-09-10T02:59:02.809Z,741
2018-09-10T03:00:10.024Z,741
2018-09-10T03:01:16.961Z,742
2018-09-10T03:02:24.173Z,743
2018-09-10T03:03:31.386Z,743
2018-09-10T03:04:38.601Z,744
2018-09-10T03:05:45.810Z,744
2018-09-10T03:06:53.015Z,743
2018-09-10T03:08:00.230Z,741
2018-09-10T03:09:07.158Z,742
2018-09-10T03:10:14.383Z,743
2018-09-10T03:11:21.319Z,743
2018-09-10T03:12:28.531Z,743
2018-09-10T03:13:35.743Z,744
2018-09-10T03:14:42.954Z,744
2018-09-10T03:15:50.166Z,744
2018-09-10T03:16:57.377Z,745
2018-09-10T03:18:04.912Z,746
2018-09-10T03:19:12.471Z,744
2018-09-10T03:20:19.677Z,745
2018-09-10T03:21:26.886Z,744
2018-09-10T03:22:34.112Z,745
2018-09-10T03:23:41.321Z,745
2018-09-10T03:24:48.539Z,743
2018-09-10T03:25:55.746Z,745
2018-09-10T03:27:02.954Z,745
2018-09-10T03:28:10.168Z,745
2018-09-10T03:29:17.377Z,747
2018-09-10T03:30:24.585Z,746
2018-09-10T03:31:31.794Z,746
2018-09-10T03:32:39.005Z,745
2018-09-10T03:33:46.411Z,745
2018-09-10T03:34:53.622Z,745
2018-09-10T03:36:00.830Z,745
2018-09-10T03:37:08.036Z,745
2018-09-10T03:38:15.243Z,746
2018-09-10T03:39:22.462Z,744
2018-09-10T03:40:29.403Z,745
2018-09-10T03:41:36.647Z,744
2018-09-10T03:42:43.848Z,745
2018-09-10T03:43:51.057Z,746
2018-09-10T03:44:58.273Z,746
2018-09-10T03:46:05.484Z,747
2018-09-10T03:47:12.830Z,746
2018-09-10T03:48:20.036Z,746
2018-09-10T03:49:27.250Z,748
2018-09-10T03:50:34.191Z,747
2018-09-10T03:51:41.408Z,748
2018-09-10T03:52:48.619Z,748
2018-09-10T03:53:55.554Z,748
2018-09-10T03:55:02.756Z,745
2018-09-10T03:56:09.965Z,747
2018-09-10T03:57:17.169Z,747
2018-09-10T03:58:24.376Z,745
2018-09-10T03:59:31.605Z,747
2018-09-10T04:00:38.797Z,746
2018-09-10T04:01:46.004Z,746
2018-09-10T04:02:53.213Z,747
2018-09-10T04:04:00.423Z,746
2018-09-10T04:05:07.627Z,746
2018-09-10T04:06:14.843Z,746
2018-09-10T04:07:22.062Z,746
2018-09-10T04:08:29.268Z,746
2018-09-10T04:09:36.476Z,746
2018-09-10T04:10:43.444Z,747
2018-09-10T04:11:50.655Z,745
2018-09-10T04:12:57.863Z,745
2018-09-10T04:14:04.800Z,744
2018-09-10T04:15:12.009Z,743
2018-09-10T04:16:19.210Z,743
2018-09-10T04:17:26.422Z,744
2018-09-10T04:18:33.633Z,744
2018-09-10T04:19:40.841Z,742
2018-09-10T04:20:48.049Z,741
2018-09-10T04:21:55.257Z,743
2018-09-10T04:23:02.463Z,743
2018-09-10T04:24:09.666Z,741
2018-09-10T04:25:16.873Z,741
2018-09-10T04:26:24.084Z,739
2018-09-10T04:27:31.296Z,739
2018-09-10T04:28:38.528Z,741
2018-09-10T04:29:45.738Z,740
2018-09-10T04:30:52.957Z,741
2018-09-10T04:32:00.162Z,740
2018-09-10T04:33:07.369Z,741
2018-09-10T04:34:14.583Z,740
2018-09-10T04:35:21.519Z,740
2018-09-10T04:36:28.456Z,740
2018-09-10T04:37:35.672Z,738
2018-09-10T04:38:42.893Z,739
2018-09-10T04:39:50.099Z,737
2018-09-10T04:40:57.519Z,737
2018-09-10T04:42:04.746Z,737
2018-09-10T04:43:12.022Z,738
2018-09-10T04:44:19.232Z,738
2018-09-10T04:45:26.444Z,737
2018-09-10T04:46:33.649Z,737
2018-09-10T04:47:40.862Z,737
2018-09-10T04:48:47.794Z,736
2018-09-10T04:49:55.073Z,735
2018-09-10T04:51:02.277Z,734
2018-09-10T04:52:09.490Z,734
2018-09-10T04:53:16.700Z,734
2018-09-10T04:54:23.912Z,733
2018-09-10T04:55:31.126Z,733
2018-09-10T04:56:38.344Z,732
2018-09-10T04:57:45.545Z,732
2018-09-10T04:58:52.761Z,733
2018-09-10T04:59:59.959Z,732
2018-09-10T05:01:06.900Z,732
2018-09-10T05:02:13.839Z,730
2018-09-10T05:03:21.044Z,730
2018-09-10T05:04:28.029Z,730
2018-09-10T05:05:35.436Z,731
2018-09-10T05:06:42.637Z,729
2018-09-10T05:07:49.849Z,729
2018-09-10T05:08:57.057Z,727
2018-09-10T05:10:04.536Z,728
2018-09-10T05:11:11.889Z,727
2018-09-10T05:12:19.101Z,728
2018-09-10T05:13:26.310Z,726
2018-09-10T05:14:33.523Z,725
2018-09-10T05:15:40.732Z,726
2018-09-10T05:16:47.662Z,725
2018-09-10T05:17:54.869Z,725
2018-09-10T05:19:02.077Z,724
2018-09-10T05:20:09.296Z,724
2018-09-10T05:21:16.504Z,723
2018-09-10T05:22:23.445Z,722
2018-09-10T05:23:30.381Z,721
2018-09-10T05:24:37.596Z,722
2018-09-10T05:25:44.798Z,720
2018-09-10T05:26:52.006Z,719
2018-09-10T05:27:59.241Z,718
2018-09-10T05:29:06.453Z,718
2018-09-10T05:30:13.391Z,717
2018-09-10T05:31:20.601Z,717
2018-09-10T05:32:27.841Z,717
2018-09-10T05:33:34.781Z,715
2018-09-10T05:34:41.716Z,714
2018-09-10T05:35:48.650Z,713
2018-09-10T05:36:55.864Z,712
2018-09-10T05:38:03.070Z,711
2018-09-10T05:39:10.289Z,710
2018-09-10T05:40:17.227Z,710
2018-09-10T05:41:24.444Z,709
2018-09-10T05:42:31.380Z,709
2018-09-10T05:43:38.315Z,709
2018-09-10T05:44:45.516Z,709
2018-09-10T05:45:52.453Z,707
2018-09-10T05:46:59.664Z,707
2018-09-10T05:48:06.869Z,707
2018-09-10T05:49:14.084Z,705
2018-09-10T05:50:21.311Z,706
2018-09-10T05:51:28.526Z,704
2018-09-10T05:52:35.739Z,705
2018-09-10T05:53:42.678Z,704
2018-09-10T05:54:49.886Z,705
2018-09-10T05:55:57.093Z,704
2018-09-10T05:57:04.302Z,703
2018-09-10T05:58:11.514Z,705
2018-09-10T05:59:18.726Z,704
2018-09-10T06:00:25.931Z,704
2018-09-10T06:01:33.142Z,702
2018-09-10T06:02:40.354Z,701
2018-09-10T06:03:47.563Z,702
2018-09-10T06:04:54.498Z,703
2018-09-10T06:06:01.715Z,701
2018-09-10T06:07:08.662Z,701
2018-09-10T06:08:15.594Z,700
2018-09-10T06:09:22.826Z,701
2018-09-10T06:10:29.893Z,700
2018-09-10T06:11:37.267Z,699
2018-09-10T06:12:44.496Z,699
2018-09-10T06:13:51.703Z,698
2018-09-10T06:14:58.920Z,698
2018-09-10T06:16:06.128Z,698
2018-09-10T06:17:13.342Z,699
2018-09-10T06:18:20.002Z,698
2018-09-10T06:19:27.246Z,699
2018-09-10T06:20:34.457Z,698
2018-09-10T06:21:41.669Z,698
2018-09-10T06:22:48.603Z,698
2018-09-10T06:23:55.810Z,698
2018-09-10T06:25:02.749Z,699
2018-09-10T06:26:09.683Z,697
2018-09-10T06:27:16.900Z,698
2018-09-10T06:28:23.842Z,691
2018-09-10T06:29:30.778Z,688
2018-09-10T06:30:37.986Z,687
2018-09-10T06:31:45.201Z,685
2018-09-10T06:32:52.411Z,684
2018-09-10T06:33:59.367Z,682
2018-09-10T06:35:06.635Z,682
2018-09-10T06:36:13.845Z,680
2018-09-10T06:37:21.055Z,679
2018-09-10T06:38:28.262Z,681
2018-09-10T06:39:35.475Z,684
2018-09-10T06:40:42.680Z,685
2018-09-10T06:41:49.894Z,685
2018-09-10T06:42:57.105Z,685
2018-09-10T06:44:04.318Z,686
2018-09-10T06:45:11.529Z,687
2018-09-10T06:46:18.185Z,687
2018-09-10T06:47:25.396Z,688
2018-09-10T06:48:32.605Z,687
2018-09-10T06:49:39.275Z,689
2018-09-10T06:50:46.484Z,689
2018-09-10T06:51:53.691Z,691
2018-09-10T06:53:00.668Z,690
2018-09-10T06:54:07.879Z,691
2018-09-10T06:55:15.088Z,691
2018-09-10T06:56:22.298Z,691
2018-09-10T06:57:29.508Z,693
2018-09-10T06:58:36.724Z,692
2018-09-10T06:59:43.657Z,694
2018-09-10T07:00:50.926Z,692
2018-09-10T07:01:58.141Z,693
2018-09-10T07:03:05.352Z,692
2018-09-10T07:04:12.570Z,692
2018-09-10T07:05:19.785Z,693
2018-09-10T07:06:27.178Z,692
2018-09-10T07:07:34.433Z,693
2018-09-10T07:08:41.649Z,693
2018-09-10T07:09:48.583Z,693
2018-09-10T07:10:55.524Z,693
2018-09-10T07:12:02.729Z,693
2018-09-10T07:13:09.789Z,693
2018-09-10T07:14:17.087Z,694
2018-09-10T07:15:24.301Z,694
2018-09-10T07:16:31.559Z,694
2018-09-10T07:17:38.758Z,694
2018-09-10T07:18:46.484Z,695
2018-09-10T07:19:53.867Z,694
2018-09-10T07:21:01.110Z,694
2018-09-10T07:22:08.359Z,695
2018-09-10T07:23:15.567Z,696
2018-09-10T07:24:22.776Z,694
2018-09-10T07:25:29.718Z,695
2018-09-10T07:26:36.924Z,694
2018-09-10T07:27:44.134Z,694
2018-09-10T07:28:51.360Z,694
2018-09-10T07:29:58.286Z,693
2018-09-10T07:31:05.500Z,694
2018-09-10T07:32:12.716Z,694
2018-09-10T07:33:19.921Z,694
2018-09-10T07:34:27.251Z,694
2018-09-10T07:35:49.153Z,694
2018-09-10T07:36:56.373Z,692
2018-09-10T07:38:03.584Z,693
2018-09-10T07:39:10.801Z,691
2018-09-10T07:40:18.027Z,693
2018-09-10T07:41:25.224Z,693
2018-09-10T07:42:32.440Z,693
2018-09-10T07:43:39.385Z,691
2018-09-10T07:44:46.644Z,692
2018-09-10T07:45:53.854Z,690
2018-09-10T07:47:01.063Z,689
2018-09-10T07:48:08.271Z,691
2018-09-10T07:49:15.486Z,691
2018-09-10T07:50:22.866Z,692
2018-09-10T07:51:30.137Z,692
2018-09-10T07:52:37.354Z,692
2018-09-10T07:53:44.565Z,692
2018-09-10T07:54:51.784Z,692
2018-09-10T07:55:58.728Z,691
2018-09-10T07:57:05.668Z,691
2018-09-10T07:58:12.888Z,691
2018-09-10T07:59:20.104Z,690
2018-09-10T08:00:27.312Z,688
2018-09-10T08:01:34.532Z,688
2018-09-10T08:02:41.747Z,689
2018-09-10T08:03:48.960Z,689
2018-09-10T08:04:56.169Z,689
2018-09-10T08:06:03.381Z,691
2018-09-10T08:07:10.601Z,691
2018-09-10T08:08:17.540Z,691
2018-09-10T08:09:25.174Z,690
2018-09-10T08:10:32.557Z,689
2018-09-10T08:11:39.770Z,689
2018-09-10T08:12:46.984Z,688
2018-09-10T08:13:54.196Z,688
2018-09-10T08:15:01.402Z,686
2018-09-10T08:16:08.624Z,686
2018-09-10T08:17:15.832Z,686
2018-09-10T08:18:23.042Z,684
2018-09-10T08:19:30.253Z,683
2018-09-10T08:20:37.466Z,685
2018-09-10T08:21:44.676Z,685
2018-09-10T08:22:51.894Z,688
2018-09-10T08:23:59.132Z,686
2018-09-10T08:25:06.467Z,687
2018-09-10T08:26:13.736Z,687
2018-09-10T08:27:20.946Z,687
2018-09-10T08:28:28.159Z,688
2018-09-10T08:29:35.374Z,688
2018-09-10T08:30:42.587Z,687
2018-09-10T08:31:49.800Z,689
2018-09-10T08:32:57.012Z,689
2018-09-10T08:34:04.243Z,689
2018-09-10T08:35:11.461Z,688
2018-09-10T08:36:18.673Z,687
2018-09-10T08:37:25.883Z,689
2018-09-10T08:38:33.106Z,691
2018-09-10T08:39:40.327Z,690
2018-09-10T08:40:47.582Z,689
2018-09-10T08:41:54.794Z,690
2018-09-10T08:43:02.013Z,689
2018-09-10T08:44:09.241Z,689
2018-09-10T08:45:16.461Z,690
2018-09-10T08:46:23.404Z,690
2018-09-10T08:47:30.625Z,689
2018-09-10T08:48:37.847Z,691
2018-09-10T08:49:45.058Z,690
2018-09-10T08:50:52.281Z,690
2018-09-10T08:51:59.499Z,690
2018-09-10T08:53:06.715Z,690
2018-09-10T08:54:14.361Z,689
2018-09-10T08:55:22.343Z,688
2018-09-10T08:56:29.868Z,688
2018-09-10T08:57:37.082Z,688
2018-09-10T08:58:58.960Z,688
2018-09-10T09:00:06.286Z,686
2018-09-10T09:01:13.570Z,685
2018-09-10T09:02:20.780Z,684
2018-09-10T09:03:27.999Z,685
2018-09-10T09:04:35.226Z,683
2018-09-10T09:05:42.459Z,683
2018-09-10T09:06:49.404Z,684
2018-09-10T09:07:56.847Z,687
2018-09-10T09:09:04.135Z,686
2018-09-10T09:10:11.355Z,683
2018-09-10T09:11:18.571Z,682
2018-09-10T09:12:25.791Z,683
2018-09-10T09:13:33.004Z,680
2018-09-10T09:14:40.215Z,678
2018-09-10T09:15:47.437Z,677
2018-09-10T09:16:54.657Z,678
2018-09-10T09:18:01.875Z,679
2018-09-10T09:19:09.093Z,680
2018-09-10T09:20:16.305Z,678
2018-09-10T09:21:23.522Z,678
2018-09-10T09:22:30.740Z,676
2018-09-10T09:23:38.304Z,675
2018-09-10T09:24:45.747Z,676
2018-09-10T09:25:52.964Z,678
2018-09-10T09:26:59.909Z,681
2018-09-10T09:28:07.134Z,685
2018-09-10T09:29:14.349Z,682
2018-09-10T09:30:21.875Z,681
2018-09-10T09:31:29.482Z,681
2018-09-10T09:32:36.705Z,676
2018-09-10T09:33:43.930Z,675
2018-09-10T09:34:51.141Z,674
2018-09-10T09:35:58.360Z,676
2018-09-10T09:37:05.579Z,674
2018-09-10T09:38:12.793Z,670
2018-09-10T09:39:20.011Z,672
2018-09-10T09:40:27.228Z,677
2018-09-10T09:41:34.443Z,679
2018-09-10T09:42:41.661Z,675
2018-09-10T09:43:48.874Z,672
2018-09-10T09:44:56.091Z,673
2018-09-10T09:46:03.036Z,673
2018-09-10T09:47:10.260Z,676
2018-09-10T09:48:17.480Z,677
2018-09-10T09:49:24.415Z,679
2018-09-10T09:50:31.634Z,681
2018-09-10T09:51:38.848Z,679
2018-09-10T09:52:45.800Z,677
2018-09-10T09:53:53.021Z,674
2018-09-10T09:55:00.241Z,673
2018-09-10T09:56:07.481Z,676
2018-09-10T09:57:14.687Z,673
2018-09-10T09:58:21.906Z,672
2018-09-10T09:59:29.133Z,669
2018-09-10T10:00:36.352Z,671
2018-09-10T10:01:43.570Z,676
2018-09-10T10:02:50.515Z,676
2018-09-10T10:03:57.781Z,675
2018-09-10T10:05:05.084Z,672
2018-09-10T10:06:12.301Z,670
2018-09-10T10:07:19.246Z,670
2018-09-10T10:08:26.469Z,671
2018-09-10T10:09:33.690Z,675
2018-09-10T10:10:40.911Z,673
2018-09-10T10:11:48.756Z,675
2018-09-10T10:12:56.328Z,672
2018-09-10T10:14:03.550Z,670
2018-09-10T10:15:10.772Z,671
2018-09-10T10:16:18.119Z,669
2018-09-10T10:17:25.375Z,669
2018-09-10T10:18:32.600Z,666
2018-09-10T10:19:39.821Z,664
2018-09-10T10:20:47.044Z,663
2018-09-10T10:21:54.016Z,666
2018-09-10T10:23:01.319Z,669
2018-09-10T10:24:08.537Z,664
2018-09-10T10:25:15.753Z,660
2018-09-10T10:26:22.974Z,661
2018-09-10T10:27:30.189Z,661
2018-09-10T10:28:37.410Z,662
2018-09-10T10:29:44.632Z,658
2018-09-10T10:30:51.845Z,655
2018-09-10T10:31:58.817Z,655
2018-09-10T10:33:06.034Z,656
2018-09-10T10:34:13.260Z,657
2018-09-10T10:35:20.475Z,660
2018-09-10T10:36:27.699Z,661
2018-09-10T10:37:34.641Z,663
2018-09-10T10:38:41.860Z,665
2018-09-10T10:39:49.081Z,665
2018-09-10T10:40:56.304Z,664
2018-09-10T10:42:03.523Z,665
2018-09-10T10:43:10.468Z,666
2018-09-10T10:44:17.427Z,663
2018-09-10T10:45:24.649Z,662
2018-09-10T10:46:31.596Z,658
2018-09-10T10:47:38.817Z,663
2018-09-10T10:48:46.054Z,659
2018-09-10T10:49:53.277Z,658
2018-09-10T10:51:00.507Z,657
2018-09-10T10:52:07.722Z,662
2018-09-10T10:53:14.944Z,662
2018-09-10T10:54:22.164Z,664
2018-09-10T10:55:29.384Z,666
2018-09-10T10:56:36.601Z,670
2018-09-10T10:57:43.847Z,672
2018-09-10T10:58:50.790Z,676
2018-09-10T10:59:57.732Z,672
2018-09-10T11:01:04.948Z,674
2018-09-10T11:02:12.169Z,673
2018-09-10T11:03:19.397Z,671
2018-09-10T11:04:26.618Z,668
2018-09-10T11:05:33.841Z,657
2018-09-10T11:06:41.067Z,648
2018-09-10T11:07:48.026Z,639
2018-09-10T11:08:55.249Z,645
2018-09-10T11:10:02.464Z,646
2018-09-10T11:11:09.683Z,647
2018-09-10T11:12:16.900Z,648
2018-09-10T11:13:23.846Z,647
2018-09-10T11:14:31.079Z,658
2018-09-10T11:15:38.026Z,655
2018-09-10T11:16:45.575Z,649
2018-09-10T11:17:52.971Z,654
2018-09-10T11:19:00.202Z,654
2018-09-10T11:20:07.145Z,654
2018-09-10T11:21:14.382Z,651
2018-09-10T11:22:21.769Z,646
2018-09-10T11:23:29.082Z,648
2018-09-10T11:24:36.312Z,641
2018-09-10T11:25:43.532Z,639
2018-09-10T11:26:50.754Z,643
2018-09-10T11:27:57.969Z,650
2018-09-10T11:29:05.185Z,648
2018-09-10T11:30:12.405Z,651
2018-09-10T11:31:19.628Z,657
2018-09-10T11:32:26.846Z,662
2018-09-10T11:33:34.067Z,657
2018-09-10T11:34:41.479Z,653
2018-09-10T11:35:48.891Z,655
2018-09-10T11:36:56.115Z,653
2018-09-10T11:38:03.332Z,655
2018-09-10T11:39:10.555Z,640
2018-09-10T11:40:17.772Z,639
2018-09-10T11:41:24.994Z,637
2018-09-10T11:42:32.216Z,633
2018-09-10T11:43:39.432Z,638
2018-09-10T11:44:46.655Z,640
2018-09-10T11:45:53.876Z,649
2018-09-10T11:47:00.828Z,653
2018-09-10T11:48:08.045Z,652
2018-09-10T11:49:15.268Z,655
2018-09-10T11:50:22.500Z,657
2018-09-10T11:51:29.721Z,650
2018-09-10T11:52:36.940Z,646
2018-09-10T11:53:44.191Z,645
2018-09-10T11:54:51.418Z,642
2018-09-10T11:55:58.636Z,648
2018-09-10T11:57:05.860Z,650
2018-09-10T11:58:12.807Z,648
2018-09-10T11:59:20.036Z,658
2018-09-10T12:00:27.256Z,663
2018-09-10T12:01:34.530Z,660
2018-09-10T12:02:41.739Z,654
2018-09-10T12:03:48.962Z,642
2018-09-10T12:04:56.188Z,636
2018-09-10T12:06:03.417Z,636
2018-09-10T12:07:10.376Z,644
2018-09-10T12:08:17.607Z,639
2018-09-10T12:09:24.824Z,640
2018-09-10T12:10:31.767Z,643
2018-09-10T12:11:38.990Z,637
2018-09-10T12:12:46.213Z,633
2018-09-10T12:13:53.436Z,638
2018-09-10T12:15:00.656Z,645
2018-09-10T12:16:07.881Z,643
2018-09-10T12:17:15.104Z,646
2018-09-10T12:18:22.320Z,650
2018-09-10T12:19:29.546Z,649
2018-09-10T12:20:36.763Z,644
2018-09-10T12:21:43.987Z,636
2018-09-10T12:22:51.207Z,637
2018-09-10T12:23:58.424Z,627
2018-09-10T12:25:05.641Z,630
2018-09-10T12:26:12.591Z,631
2018-09-10T12:27:19.809Z,631
2018-09-10T12:28:27.028Z,633
2018-09-10T12:29:34.259Z,636
2018-09-10T12:30:41.485Z,635
2018-09-10T12:31:48.708Z,622
2018-09-10T12:32:55.932Z,624
2018-09-10T12:34:02.874Z,631
2018-09-10T12:35:10.102Z,630
2018-09-10T12:36:17.316Z,633
2018-09-10T12:37:24.544Z,640
2018-09-10T12:38:31.761Z,643
2018-09-10T12:39:39.164Z,645
2018-09-10T12:40:46.504Z,645
2018-09-10T12:41:53.718Z,650
2018-09-10T12:43:00.937Z,645
2018-09-10T12:44:08.160Z,646
2018-09-10T12:45:15.379Z,641
2018-09-10T12:46:22.390Z,635
2018-09-10T12:47:29.732Z,635
2018-09-10T12:48:36.952Z,635
2018-09-10T12:49:44.167Z,630
2018-09-10T12:50:51.395Z,633
2018-09-10T12:51:58.608Z,640
2018-09-10T12:53:05.828Z,652
2018-09-10T12:54:13.077Z,656
2018-09-10T12:55:20.289Z,657
2018-09-10T12:56:27.514Z,651
2018-09-10T12:57:34.463Z,645
2018-09-10T12:58:41.481Z,632
2018-09-10T12:59:48.716Z,623
2018-09-10T13:00:55.934Z,621
2018-09-10T13:02:02.883Z,615
2018-09-10T13:03:10.099Z,618
2018-09-10T13:04:17.456Z,628
2018-09-10T13:05:24.834Z,625
2018-09-10T13:06:32.066Z,616
2018-09-10T13:07:39.022Z,620
2018-09-10T13:08:46.236Z,624
2018-09-10T13:09:53.457Z,630
2018-09-10T13:11:00.402Z,627
2018-09-10T13:12:07.683Z,631
2018-09-10T13:13:14.899Z,631
2018-09-10T13:14:22.123Z,630
2018-09-10T13:15:29.346Z,630
2018-09-10T13:16:36.613Z,619
2018-09-10T13:17:43.589Z,616
2018-09-10T13:18:50.804Z,634
2018-09-10T13:19:57.755Z,643
2018-09-10T13:21:04.976Z,644
2018-09-10T13:22:12.191Z,645
2018-09-10T13:23:19.412Z,645
2018-09-10T13:24:26.636Z,646
2018-09-10T13:25:33.856Z,655
2018-09-10T13:26:40.797Z,659
2018-09-10T13:27:48.032Z,663
2018-09-10T13:28:55.263Z,655
2018-09-10T13:30:02.536Z,642
2018-09-10T13:31:09.479Z,642
2018-09-10T13:32:16.432Z,640
2018-09-10T13:33:23.655Z,642
2018-09-10T13:34:30.878Z,643
2018-09-10T13:35:38.097Z,650
2018-09-10T13:36:45.707Z,655
2018-09-10T13:37:53.108Z,655
2018-09-10T13:39:00.334Z,647
2018-09-10T13:40:07.549Z,644
2018-09-10T13:41:14.764Z,637
2018-09-10T13:42:21.986Z,641
2018-09-10T13:43:29.210Z,643
2018-09-10T13:44:36.428Z,651
2018-09-10T13:45:43.096Z,648
2018-09-10T13:46:50.315Z,653
2018-09-10T13:47:57.536Z,656
2018-09-10T13:49:04.512Z,655
2018-09-10T13:50:11.736Z,657
2018-09-10T13:51:18.959Z,655
2018-09-10T13:52:26.184Z,652
2018-09-10T13:53:33.408Z,651
2018-09-10T13:54:40.625Z,652
2018-09-10T13:55:47.852Z,649
2018-09-10T13:56:55.075Z,653
2018-09-10T13:58:02.297Z,656
2018-09-10T13:59:09.528Z,659
2018-09-10T14:00:16.745Z,659
2018-09-10T14:01:24.119Z,661
2018-09-10T14:02:31.356Z,661
2018-09-10T14:03:38.581Z,659
2018-09-10T14:04:45.812Z,658
2018-09-10T14:05:52.752Z,657
2018-09-10T14:06:59.973Z,657
2018-09-10T14:08:07.195Z,656
2018-09-10T14:09:14.416Z,657
2018-09-10T14:10:21.637Z,656
2018-09-10T14:11:28.914Z,657
2018-09-10T14:12:35.853Z,656
2018-09-10T14:13:43.074Z,655
2018-09-10T14:14:50.296Z,655
2018-09-10T14:15:57.558Z,654
2018-09-10T14:17:04.788Z,653
2018-09-10T14:18:12.226Z,652
2018-09-10T14:19:19.628Z,654
2018-09-10T14:20:26.851Z,654
2018-09-10T14:21:34.067Z,655
2018-09-10T14:22:41.291Z,656
2018-09-10T14:23:48.509Z,658
2018-09-10T14:24:55.729Z,658
2018-09-10T14:26:02.949Z,659
2018-09-10T14:27:10.294Z,659
2018-09-10T14:28:17.649Z,659
2018-09-10T14:29:24.868Z,658
2018-09-10T14:30:32.095Z,660
2018-09-10T14:31:40.234Z,659
2018-09-10T14:32:48.460Z,660
2018-09-10T14:33:55.742Z,659
2018-09-10T14:35:02.965Z,658
2018-09-10T14:36:10.193Z,659
2018-09-10T14:37:17.429Z,657
2018-09-10T14:38:24.383Z,658
2018-09-10T14:39:31.605Z,658
2018-09-10T22:00:07.316Z,745
2018-09-10T22:01:14.532Z,732
2018-09-10T22:02:21.748Z,729
2018-09-10T22:03:28.692Z,727
2018-09-10T22:04:35.922Z,725
2018-09-10T22:05:42.857Z,726
2018-09-10T22:06:50.069Z,726
2018-09-10T22:07:57.283Z,725
2018-09-10T22:09:04.493Z,725
2018-09-10T22:10:11.910Z,726
2018-09-10T22:11:19.330Z,726
2018-09-10T22:12:26.539Z,725
2018-09-10T22:13:33.758Z,726
2018-09-10T22:14:40.971Z,725
2018-09-10T22:15:48.184Z,725
2018-09-10T22:16:55.397Z,724
2018-09-10T22:18:02.616Z,725
2018-09-10T22:19:09.557Z,724
2018-09-10T22:20:16.485Z,724
2018-09-10T22:21:23.423Z,724
2018-09-10T22:22:30.645Z,725
2018-09-10T22:23:37.856Z,724
2018-09-10T22:24:45.337Z,722
2018-09-10T22:25:52.794Z,722
2018-09-10T22:27:00.016Z,721
2018-09-10T22:28:07.233Z,721
2018-09-10T22:29:14.446Z,721
2018-09-10T22:30:21.385Z,721
2018-09-10T22:31:28.599Z,720
2018-09-10T22:32:35.815Z,720
2018-09-10T22:33:43.032Z,719
2018-09-10T22:34:50.250Z,720
2018-09-10T22:35:57.459Z,721
2018-09-10T22:37:04.673Z,720
2018-09-10T22:38:11.888Z,721
2018-09-10T22:39:19.102Z,721
2018-09-10T22:40:26.316Z,721
2018-09-10T22:41:33.527Z,719
2018-09-10T22:42:40.467Z,720
2018-09-10T22:43:47.675Z,719
2018-09-10T22:44:54.889Z,719
2018-09-10T22:46:02.104Z,720